sensor_id;sensor_type;location;lat;lon;timestamp;P1;durP1;ratioP1;P2;durP2;ratioP2
41984;SDS011;28319;48.116;10.818;2022-11-20T00:02:47;2.17;;;1.90;;
41984;SDS011;28319;48.116;10.818;2022-11-20T00:07:49;2.90;;;2.00;;
41984;SDS011;28319;48.116;10.818;2022-11-20T00:12:51;2.10;;;1.90;;
41984;SDS011;28319;48.116;10.818;2022-11-20T00:17:54;1.70;;;1.60;;
41984;SDS011;28319;48.116;10.818;2022-11-20T00:22:56;3.03;;;1.97;;
41984;SDS011;28319;48.116;10.818;2022-11-20T00:27:59;2.00;;;1.90;;
41984;SDS011;28319;48.116;10.818;2022-11-20T00:33:02;2.67;;;2.03;;
41984;SDS011;28319;48.116;10.818;2022-11-20T00:38:04;2.70;;;2.00;;
41984;SDS011;28319;48.116;10.818;2022-11-20T00:43:06;2.43;;;2.20;;
41984;SDS011;28319;48.116;10.818;2022-11-20T00:48:10;2.10;;;1.90;;
41984;SDS011;28319;48.116;10.818;2022-11-20T00:53:12;2.40;;;2.20;;
41984;SDS011;28319;48.116;10.818;2022-11-20T00:58:14;2.20;;;2.00;;
41984;SDS011;28319;48.116;10.818;2022-11-20T01:03:17;3.53;;;1.80;;
41984;SDS011;28319;48.116;10.818;2022-11-20T01:08:20;1.87;;;1.77;;
41984;SDS011;28319;48.116;10.818;2022-11-20T01:13:22;2.00;;;1.90;;
41984;SDS011;28319;48.116;10.818;2022-11-20T01:18:41;2.33;;;1.90;;
41984;SDS011;28319;48.116;10.818;2022-11-20T01:23:44;1.90;;;1.80;;
41984;SDS011;28319;48.116;10.818;2022-11-20T01:28:47;2.93;;;2.63;;
41984;SDS011;28319;48.116;10.818;2022-11-20T01:33:51;2.50;;;2.30;;
41984;SDS011;28319;48.116;10.818;2022-11-20T01:38:55;3.33;;;2.13;;
41984;SDS011;28319;48.116;10.818;2022-11-20T01:43:58;2.83;;;2.40;;
41984;SDS011;28319;48.116;10.818;2022-11-20T01:49:02;2.60;;;2.40;;
41984;SDS011;28319;48.116;10.818;2022-11-20T01:54:11;2.93;;;2.63;;
41984;SDS011;28319;48.116;10.818;2022-11-20T01:59:18;2.50;;;2.30;;
41984;SDS011;28319;48.116;10.818;2022-11-20T02:04:23;2.60;;;2.27;;
41984;SDS011;28319;48.116;10.818;2022-11-20T02:09:27;2.70;;;2.50;;
41984;SDS011;28319;48.116;10.818;2022-11-20T02:14:29;2.33;;;2.10;;
41984;SDS011;28319;48.116;10.818;2022-11-20T02:19:33;2.40;;;2.20;;
41984;SDS011;28319;48.116;10.818;2022-11-20T02:24:36;2.57;;;2.37;;
41984;SDS011;28319;48.116;10.818;2022-11-20T02:29:39;2.83;;;2.63;;
41984;SDS011;28319;48.116;10.818;2022-11-20T02:34:46;4.20;;;2.33;;
41984;SDS011;28319;48.116;10.818;2022-11-20T02:39:50;2.97;;;2.37;;
41984;SDS011;28319;48.116;10.818;2022-11-20T02:44:53;3.10;;;2.90;;
41984;SDS011;28319;48.116;10.818;2022-11-20T02:49:55;3.10;;;2.80;;
41984;SDS011;28319;48.116;10.818;2022-11-20T02:54:59;2.40;;;2.20;;
41984;SDS011;28319;48.116;10.818;2022-11-20T03:00:01;2.40;;;2.20;;
41984;SDS011;28319;48.116;10.818;2022-11-20T03:05:04;2.30;;;2.20;;
41984;SDS011;28319;48.116;10.818;2022-11-20T03:10:09;2.90;;;2.60;;
41984;SDS011;28319;48.116;10.818;2022-11-20T03:15:11;4.03;;;2.70;;
41984;SDS011;28319;48.116;10.818;2022-11-20T03:20:16;2.40;;;2.20;;
41984;SDS011;28319;48.116;10.818;2022-11-20T03:25:19;2.80;;;2.60;;
41984;SDS011;28319;48.116;10.818;2022-11-20T03:30:21;2.40;;;2.20;;
41984;SDS011;28319;48.116;10.818;2022-11-20T03:35:24;3.43;;;2.50;;
41984;SDS011;28319;48.116;10.818;2022-11-20T03:40:28;3.00;;;2.40;;
41984;SDS011;28319;48.116;10.818;2022-11-20T03:45:31;2.50;;;2.30;;
41984;SDS011;28319;48.116;10.818;2022-11-20T03:50:34;2.50;;;2.30;;
41984;SDS011;28319;48.116;10.818;2022-11-20T03:55:39;2.63;;;2.30;;
41984;SDS011;28319;48.116;10.818;2022-11-20T04:00:41;2.70;;;2.43;;
41984;SDS011;28319;48.116;10.818;2022-11-20T04:05:43;2.37;;;2.17;;
41984;SDS011;28319;48.116;10.818;2022-11-20T04:10:47;2.50;;;2.30;;
41984;SDS011;28319;48.116;10.818;2022-11-20T04:15:49;2.20;;;2.10;;
41984;SDS011;28319;48.116;10.818;2022-11-20T04:20:51;3.10;;;2.43;;
41984;SDS011;28319;48.116;10.818;2022-11-20T04:26:00;2.57;;;2.30;;
41984;SDS011;28319;48.116;10.818;2022-11-20T04:31:04;2.23;;;2.03;;
41984;SDS011;28319;48.116;10.818;2022-11-20T04:36:07;2.40;;;2.20;;
41984;SDS011;28319;48.116;10.818;2022-11-20T04:41:15;2.70;;;2.23;;
41984;SDS011;28319;48.116;10.818;2022-11-20T04:46:19;2.10;;;2.00;;
41984;SDS011;28319;48.116;10.818;2022-11-20T04:51:21;2.20;;;2.00;;
41984;SDS011;28319;48.116;10.818;2022-11-20T04:56:26;2.00;;;1.90;;
41984;SDS011;28319;48.116;10.818;2022-11-20T05:06:32;2.57;;;2.37;;
41984;SDS011;28319;48.116;10.818;2022-11-20T05:11:36;2.20;;;2.10;;
41984;SDS011;28319;48.116;10.818;2022-11-20T05:16:38;5.53;;;2.50;;
41984;SDS011;28319;48.116;10.818;2022-11-20T05:21:40;2.63;;;2.43;;
41984;SDS011;28319;48.116;10.818;2022-11-20T05:26:46;2.03;;;1.90;;
41984;SDS011;28319;48.116;10.818;2022-11-20T05:31:48;2.63;;;2.43;;
41984;SDS011;28319;48.116;10.818;2022-11-20T05:36:50;2.87;;;2.67;;
41984;SDS011;28319;48.116;10.818;2022-11-20T05:41:55;2.37;;;2.20;;
41984;SDS011;28319;48.116;10.818;2022-11-20T05:47:11;2.37;;;2.17;;
41984;SDS011;28319;48.116;10.818;2022-11-20T05:52:13;4.30;;;2.13;;
41984;SDS011;28319;48.116;10.818;2022-11-20T05:57:17;2.47;;;2.33;;
41984;SDS011;28319;48.116;10.818;2022-11-20T06:02:19;2.50;;;2.30;;
41984;SDS011;28319;48.116;10.818;2022-11-20T06:07:21;2.43;;;2.23;;
41984;SDS011;28319;48.116;10.818;2022-11-20T06:12:25;3.10;;;2.40;;
41984;SDS011;28319;48.116;10.818;2022-11-20T06:17:27;2.17;;;2.07;;
41984;SDS011;28319;48.116;10.818;2022-11-20T06:22:29;5.87;;;4.40;;
41984;SDS011;28319;48.116;10.818;2022-11-20T06:27:32;2.50;;;2.30;;
41984;SDS011;28319;48.116;10.818;2022-11-20T06:32:34;2.43;;;2.23;;
41984;SDS011;28319;48.116;10.818;2022-11-20T06:37:37;2.40;;;2.20;;
41984;SDS011;28319;48.116;10.818;2022-11-20T06:42:41;2.57;;;2.37;;
41984;SDS011;28319;48.116;10.818;2022-11-20T06:47:43;2.50;;;2.00;;
41984;SDS011;28319;48.116;10.818;2022-11-20T06:52:45;2.60;;;2.40;;
41984;SDS011;28319;48.116;10.818;2022-11-20T06:57:49;3.50;;;2.57;;
41984;SDS011;28319;48.116;10.818;2022-11-20T07:02:52;2.83;;;2.60;;
41984;SDS011;28319;48.116;10.818;2022-11-20T07:07:55;2.93;;;2.40;;
41984;SDS011;28319;48.116;10.818;2022-11-20T07:12:59;2.77;;;2.33;;
41984;SDS011;28319;48.116;10.818;2022-11-20T07:18:01;2.50;;;2.30;;
41984;SDS011;28319;48.116;10.818;2022-11-20T07:23:03;2.50;;;2.30;;
41984;SDS011;28319;48.116;10.818;2022-11-20T07:28:07;3.60;;;2.63;;
41984;SDS011;28319;48.116;10.818;2022-11-20T07:33:10;2.40;;;2.17;;
41984;SDS011;28319;48.116;10.818;2022-11-20T07:38:12;2.50;;;2.30;;
41984;SDS011;28319;48.116;10.818;2022-11-20T07:43:16;2.60;;;2.40;;
41984;SDS011;28319;48.116;10.818;2022-11-20T07:48:18;2.87;;;2.67;;
41984;SDS011;28319;48.116;10.818;2022-11-20T07:53:20;2.73;;;2.53;;
41984;SDS011;28319;48.116;10.818;2022-11-20T07:58:24;2.70;;;2.50;;
41984;SDS011;28319;48.116;10.818;2022-11-20T08:03:26;4.37;;;2.70;;
41984;SDS011;28319;48.116;10.818;2022-11-20T08:08:28;2.60;;;2.40;;
41984;SDS011;28319;48.116;10.818;2022-11-20T08:13:33;2.57;;;2.37;;
41984;SDS011;28319;48.116;10.818;2022-11-20T08:18:52;3.03;;;2.63;;
41984;SDS011;28319;48.116;10.818;2022-11-20T08:23:54;3.03;;;2.50;;
41984;SDS011;28319;48.116;10.818;2022-11-20T08:28:58;2.53;;;2.40;;
41984;SDS011;28319;48.116;10.818;2022-11-20T08:34:00;2.93;;;2.70;;
41984;SDS011;28319;48.116;10.818;2022-11-20T08:39:02;3.67;;;2.70;;
41984;SDS011;28319;48.116;10.818;2022-11-20T08:44:07;4.30;;;3.30;;
41984;SDS011;28319;48.116;10.818;2022-11-20T08:49:10;3.33;;;3.07;;
41984;SDS011;28319;48.116;10.818;2022-11-20T08:54:13;2.50;;;2.30;;
41984;SDS011;28319;48.116;10.818;2022-11-20T08:59:19;6.93;;;2.93;;
41984;SDS011;28319;48.116;10.818;2022-11-20T09:04:21;3.10;;;2.90;;
41984;SDS011;28319;48.116;10.818;2022-11-20T09:09:23;2.33;;;2.13;;
41984;SDS011;28319;48.116;10.818;2022-11-20T09:14:26;2.10;;;2.00;;
41984;SDS011;28319;48.116;10.818;2022-11-20T09:19:30;2.20;;;2.10;;
41984;SDS011;28319;48.116;10.818;2022-11-20T09:24:32;3.33;;;2.10;;
41984;SDS011;28319;48.116;10.818;2022-11-20T09:29:36;2.43;;;2.23;;
41984;SDS011;28319;48.116;10.818;2022-11-20T09:34:38;3.90;;;1.73;;
41984;SDS011;28319;48.116;10.818;2022-11-20T09:39:40;2.00;;;1.90;;
41984;SDS011;28319;48.116;10.818;2022-11-20T09:50:14;1.60;;;1.50;;
41984;SDS011;28319;48.116;10.818;2022-11-20T09:55:25;1.83;;;1.60;;
41984;SDS011;28319;48.116;10.818;2022-11-20T10:00:30;1.57;;;1.47;;
41984;SDS011;28319;48.116;10.818;2022-11-20T10:05:34;1.60;;;1.50;;
41984;SDS011;28319;48.116;10.818;2022-11-20T10:10:42;1.30;;;1.23;;
41984;SDS011;28319;48.116;10.818;2022-11-20T10:15:52;1.70;;;1.60;;
41984;SDS011;28319;48.116;10.818;2022-11-20T10:21:02;1.70;;;1.60;;
41984;SDS011;28319;48.116;10.818;2022-11-20T10:26:17;1.70;;;1.60;;
41984;SDS011;28319;48.116;10.818;2022-11-20T10:31:27;1.60;;;1.50;;
41984;SDS011;28319;48.116;10.818;2022-11-20T10:36:34;1.70;;;1.50;;
41984;SDS011;28319;48.116;10.818;2022-11-20T10:41:42;1.37;;;1.33;;
41984;SDS011;28319;48.116;10.818;2022-11-20T10:46:48;1.50;;;1.40;;
41984;SDS011;28319;48.116;10.818;2022-11-20T10:51:54;1.17;;;1.10;;
41984;SDS011;28319;48.116;10.818;2022-11-20T10:57:05;1.30;;;1.20;;
41984;SDS011;28319;48.116;10.818;2022-11-20T11:02:20;1.67;;;1.57;;
41984;SDS011;28319;48.116;10.818;2022-11-20T11:07:23;1.20;;;1.20;;
41984;SDS011;28319;48.116;10.818;2022-11-20T11:12:28;1.53;;;1.43;;
41984;SDS011;28319;48.116;10.818;2022-11-20T11:17:32;1.60;;;1.50;;
41984;SDS011;28319;48.116;10.818;2022-11-20T11:22:43;1.70;;;1.37;;
41984;SDS011;28319;48.116;10.818;2022-11-20T11:27:48;1.77;;;1.67;;
41984;SDS011;28319;48.116;10.818;2022-11-20T11:33:01;1.53;;;1.43;;
41984;SDS011;28319;48.116;10.818;2022-11-20T11:38:05;1.43;;;1.33;;
41984;SDS011;28319;48.116;10.818;2022-11-20T11:43:16;2.23;;;1.23;;
41984;SDS011;28319;48.116;10.818;2022-11-20T11:48:40;1.40;;;1.40;;
41984;SDS011;28319;48.116;10.818;2022-11-20T11:53:43;1.73;;;1.63;;
41984;SDS011;28319;48.116;10.818;2022-11-20T11:58:46;1.40;;;1.40;;
41984;SDS011;28319;48.116;10.818;2022-11-20T12:03:53;2.13;;;2.00;;
41984;SDS011;28319;48.116;10.818;2022-11-20T12:09:04;1.83;;;1.73;;
41984;SDS011;28319;48.116;10.818;2022-11-20T12:14:11;1.70;;;1.60;;
41984;SDS011;28319;48.116;10.818;2022-11-20T12:19:20;1.83;;;1.60;;
41984;SDS011;28319;48.116;10.818;2022-11-20T12:24:42;1.80;;;1.70;;
41984;SDS011;28319;48.116;10.818;2022-11-20T12:29:54;2.10;;;1.80;;
41984;SDS011;28319;48.116;10.818;2022-11-20T12:35:04;2.40;;;2.20;;
41984;SDS011;28319;48.116;10.818;2022-11-20T12:40:32;1.60;;;1.50;;
41984;SDS011;28319;48.116;10.818;2022-11-20T12:45:46;2.20;;;2.00;;
41984;SDS011;28319;48.116;10.818;2022-11-20T12:51:06;1.90;;;1.80;;
41984;SDS011;28319;48.116;10.818;2022-11-20T12:56:46;3.13;;;2.43;;
41984;SDS011;28319;48.116;10.818;2022-11-20T13:01:57;1.80;;;1.70;;
41984;SDS011;28319;48.116;10.818;2022-11-20T13:07:07;1.90;;;1.80;;
41984;SDS011;28319;48.116;10.818;2022-11-20T13:12:13;1.77;;;1.67;;
41984;SDS011;28319;48.116;10.818;2022-11-20T13:17:20;1.60;;;1.50;;
41984;SDS011;28319;48.116;10.818;2022-11-20T13:22:42;2.40;;;1.50;;
41984;SDS011;28319;48.116;10.818;2022-11-20T13:27:46;2.30;;;2.10;;
41984;SDS011;28319;48.116;10.818;2022-11-20T13:32:52;1.67;;;1.43;;
41984;SDS011;28319;48.116;10.818;2022-11-20T13:38:01;1.47;;;1.47;;
41984;SDS011;28319;48.116;10.818;2022-11-20T13:43:11;3.40;;;2.30;;
41984;SDS011;28319;48.116;10.818;2022-11-20T13:48:21;2.47;;;2.07;;
41984;SDS011;28319;48.116;10.818;2022-11-20T13:53:33;2.60;;;1.60;;
41984;SDS011;28319;48.116;10.818;2022-11-20T13:58:52;0.97;;;0.97;;
41984;SDS011;28319;48.116;10.818;2022-11-20T14:04:06;1.20;;;1.10;;
41984;SDS011;28319;48.116;10.818;2022-11-20T14:09:12;1.67;;;1.13;;
41984;SDS011;28319;48.116;10.818;2022-11-20T14:14:26;1.80;;;1.20;;
41984;SDS011;28319;48.116;10.818;2022-11-20T14:19:29;1.43;;;1.33;;
41984;SDS011;28319;48.116;10.818;2022-11-20T14:24:33;1.60;;;1.50;;
41984;SDS011;28319;48.116;10.818;2022-11-20T14:29:36;1.47;;;1.37;;
41984;SDS011;28319;48.116;10.818;2022-11-20T14:34:41;1.77;;;1.67;;
41984;SDS011;28319;48.116;10.818;2022-11-20T14:39:52;1.20;;;1.20;;
41984;SDS011;28319;48.116;10.818;2022-11-20T14:44:55;1.10;;;1.10;;
41984;SDS011;28319;48.116;10.818;2022-11-20T14:49:59;1.30;;;1.20;;
41984;SDS011;28319;48.116;10.818;2022-11-20T14:55:04;1.70;;;1.30;;
41984;SDS011;28319;48.116;10.818;2022-11-20T15:00:17;1.53;;;1.40;;
41984;SDS011;28319;48.116;10.818;2022-11-20T15:05:21;1.97;;;1.83;;
41984;SDS011;28319;48.116;10.818;2022-11-20T15:10:26;1.90;;;1.63;;
41984;SDS011;28319;48.116;10.818;2022-11-20T15:15:30;1.73;;;1.33;;
41984;SDS011;28319;48.116;10.818;2022-11-20T15:20:33;3.93;;;3.53;;
41984;SDS011;28319;48.116;10.818;2022-11-20T15:25:39;2.60;;;2.40;;
41984;SDS011;28319;48.116;10.818;2022-11-20T15:30:41;1.70;;;1.60;;
41984;SDS011;28319;48.116;10.818;2022-11-20T15:35:44;1.63;;;1.53;;
41984;SDS011;28319;48.116;10.818;2022-11-20T15:40:48;2.53;;;2.10;;
41984;SDS011;28319;48.116;10.818;2022-11-20T15:45:51;2.63;;;2.43;;
41984;SDS011;28319;48.116;10.818;2022-11-20T15:50:57;4.20;;;3.80;;
41984;SDS011;28319;48.116;10.818;2022-11-20T15:56:04;2.40;;;2.30;;
41984;SDS011;28319;48.116;10.818;2022-11-20T16:01:08;1.30;;;1.30;;
41984;SDS011;28319;48.116;10.818;2022-11-20T16:06:11;1.87;;;1.50;;
41984;SDS011;28319;48.116;10.818;2022-11-20T16:11:15;7.30;;;5.30;;
41984;SDS011;28319;48.116;10.818;2022-11-20T16:16:19;2.93;;;2.73;;
41984;SDS011;28319;48.116;10.818;2022-11-20T16:21:23;2.70;;;2.50;;
41984;SDS011;28319;48.116;10.818;2022-11-20T16:26:32;3.20;;;2.90;;
41984;SDS011;28319;48.116;10.818;2022-11-20T16:31:35;3.97;;;2.90;;
41984;SDS011;28319;48.116;10.818;2022-11-20T16:36:38;2.40;;;2.30;;
41984;SDS011;28319;48.116;10.818;2022-11-20T16:41:43;2.10;;;1.90;;
41984;SDS011;28319;48.116;10.818;2022-11-20T16:46:45;3.63;;;2.87;;
41984;SDS011;28319;48.116;10.818;2022-11-20T16:51:47;3.30;;;2.53;;
41984;SDS011;28319;48.116;10.818;2022-11-20T16:56:50;3.57;;;3.20;;
41984;SDS011;28319;48.116;10.818;2022-11-20T17:01:53;2.80;;;2.60;;
41984;SDS011;28319;48.116;10.818;2022-11-20T17:06:55;2.83;;;2.63;;
41984;SDS011;28319;48.116;10.818;2022-11-20T17:11:59;2.47;;;2.10;;
41984;SDS011;28319;48.116;10.818;2022-11-20T17:17:02;2.93;;;2.67;;
41984;SDS011;28319;48.116;10.818;2022-11-20T17:22:04;2.97;;;2.30;;
41984;SDS011;28319;48.116;10.818;2022-11-20T17:27:07;3.17;;;2.00;;
41984;SDS011;28319;48.116;10.818;2022-11-20T17:32:09;2.50;;;2.27;;
41984;SDS011;28319;48.116;10.818;2022-11-20T17:37:11;2.00;;;1.90;;
41984;SDS011;28319;48.116;10.818;2022-11-20T17:42:15;2.20;;;2.07;;
41984;SDS011;28319;48.116;10.818;2022-11-20T17:47:35;2.60;;;2.40;;
41984;SDS011;28319;48.116;10.818;2022-11-20T17:52:37;2.80;;;2.27;;
41984;SDS011;28319;48.116;10.818;2022-11-20T17:57:41;2.70;;;2.50;;
41984;SDS011;28319;48.116;10.818;2022-11-20T18:02:57;4.83;;;4.40;;
41984;SDS011;28319;48.116;10.818;2022-11-20T18:07:59;2.73;;;2.50;;
41984;SDS011;28319;48.116;10.818;2022-11-20T18:13:03;2.80;;;2.30;;
41984;SDS011;28319;48.116;10.818;2022-11-20T18:18:05;2.37;;;2.17;;
41984;SDS011;28319;48.116;10.818;2022-11-20T18:23:07;2.53;;;2.33;;
41984;SDS011;28319;48.116;10.818;2022-11-20T18:28:10;1.97;;;1.80;;
41984;SDS011;28319;48.116;10.818;2022-11-20T18:33:13;4.10;;;2.63;;
41984;SDS011;28319;48.116;10.818;2022-11-20T18:38:15;4.23;;;2.20;;
41984;SDS011;28319;48.116;10.818;2022-11-20T18:43:19;2.33;;;2.03;;
41984;SDS011;28319;48.116;10.818;2022-11-20T18:48:38;2.37;;;2.17;;
41984;SDS011;28319;48.116;10.818;2022-11-20T18:53:41;3.13;;;2.27;;
41984;SDS011;28319;48.116;10.818;2022-11-20T18:58:45;2.90;;;2.47;;
41984;SDS011;28319;48.116;10.818;2022-11-20T19:03:47;2.73;;;2.53;;
41984;SDS011;28319;48.116;10.818;2022-11-20T19:08:50;2.17;;;2.07;;
41984;SDS011;28319;48.116;10.818;2022-11-20T19:13:55;3.50;;;3.20;;
41984;SDS011;28319;48.116;10.818;2022-11-20T19:18:58;3.00;;;2.57;;
41984;SDS011;28319;48.116;10.818;2022-11-20T19:24:02;2.50;;;2.30;;
41984;SDS011;28319;48.116;10.818;2022-11-20T19:29:09;3.27;;;2.97;;
41984;SDS011;28319;48.116;10.818;2022-11-20T19:34:13;3.80;;;3.50;;
41984;SDS011;28319;48.116;10.818;2022-11-20T19:39:18;2.90;;;2.70;;
41984;SDS011;28319;48.116;10.818;2022-11-20T19:44:23;2.50;;;1.90;;
41984;SDS011;28319;48.116;10.818;2022-11-20T19:49:25;2.40;;;2.20;;
41984;SDS011;28319;48.116;10.818;2022-11-20T19:54:27;2.30;;;2.20;;
41984;SDS011;28319;48.116;10.818;2022-11-20T19:59:31;2.50;;;2.30;;
41984;SDS011;28319;48.116;10.818;2022-11-20T20:04:33;2.60;;;2.40;;
41984;SDS011;28319;48.116;10.818;2022-11-20T20:09:35;2.27;;;2.07;;
41984;SDS011;28319;48.116;10.818;2022-11-20T20:14:39;2.60;;;2.40;;
41984;SDS011;28319;48.116;10.818;2022-11-20T20:19:41;6.10;;;4.97;;
41984;SDS011;28319;48.116;10.818;2022-11-20T20:24:44;2.90;;;2.70;;
41984;SDS011;28319;48.116;10.818;2022-11-20T20:29:48;2.50;;;2.30;;
41984;SDS011;28319;48.116;10.818;2022-11-20T20:34:50;2.60;;;2.13;;
41984;SDS011;28319;48.116;10.818;2022-11-20T20:39:53;2.10;;;2.00;;
41984;SDS011;28319;48.116;10.818;2022-11-20T20:44:57;2.30;;;2.10;;
41984;SDS011;28319;48.116;10.818;2022-11-20T20:50:10;2.67;;;2.47;;
41984;SDS011;28319;48.116;10.818;2022-11-20T20:55:14;1.60;;;1.50;;
41984;SDS011;28319;48.116;10.818;2022-11-20T21:00:18;2.07;;;1.47;;
41984;SDS011;28319;48.116;10.818;2022-11-20T21:05:22;1.37;;;1.27;;
41984;SDS011;28319;48.116;10.818;2022-11-20T21:10:24;1.80;;;1.33;;
41984;SDS011;28319;48.116;10.818;2022-11-20T21:15:28;1.40;;;1.30;;
41984;SDS011;28319;48.116;10.818;2022-11-20T21:20:30;4.40;;;1.63;;
41984;SDS011;28319;48.116;10.818;2022-11-20T21:25:50;3.13;;;1.70;;
41984;SDS011;28319;48.116;10.818;2022-11-20T21:30:56;1.53;;;1.20;;
41984;SDS011;28319;48.116;10.818;2022-11-20T21:36:04;1.60;;;1.50;;
41984;SDS011;28319;48.116;10.818;2022-11-20T21:41:07;2.20;;;1.97;;
41984;SDS011;28319;48.116;10.818;2022-11-20T21:46:15;1.73;;;1.63;;
41984;SDS011;28319;48.116;10.818;2022-11-20T21:51:17;2.57;;;1.70;;
41984;SDS011;28319;48.116;10.818;2022-11-20T21:56:23;1.70;;;1.60;;
41984;SDS011;28319;48.116;10.818;2022-11-20T22:01:28;1.20;;;1.20;;
41984;SDS011;28319;48.116;10.818;2022-11-20T22:06:32;4.10;;;1.30;;
41984;SDS011;28319;48.116;10.818;2022-11-20T22:11:35;1.33;;;1.23;;
41984;SDS011;28319;48.116;10.818;2022-11-20T22:16:40;0.80;;;0.80;;
41984;SDS011;28319;48.116;10.818;2022-11-20T22:21:42;0.90;;;0.90;;
41984;SDS011;28319;48.116;10.818;2022-11-20T22:26:44;0.80;;;0.80;;
41984;SDS011;28319;48.116;10.818;2022-11-20T22:31:49;1.00;;;0.87;;
41984;SDS011;28319;48.116;10.818;2022-11-20T22:36:52;2.20;;;0.90;;
41984;SDS011;28319;48.116;10.818;2022-11-20T22:41:54;0.50;;;0.50;;
41984;SDS011;28319;48.116;10.818;2022-11-20T22:46:58;0.50;;;0.50;;
41984;SDS011;28319;48.116;10.818;2022-11-20T22:52:03;0.70;;;0.70;;
41984;SDS011;28319;48.116;10.818;2022-11-20T22:57:06;1.10;;;0.77;;
41984;SDS011;28319;48.116;10.818;2022-11-20T23:02:09;0.40;;;0.40;;
41984;SDS011;28319;48.116;10.818;2022-11-20T23:07:11;0.67;;;0.60;;
41984;SDS011;28319;48.116;10.818;2022-11-20T23:12:14;0.40;;;0.40;;
41984;SDS011;28319;48.116;10.818;2022-11-20T23:17:18;1.63;;;0.90;;
41984;SDS011;28319;48.116;10.818;2022-11-20T23:22:20;0.63;;;0.63;;
41984;SDS011;28319;48.116;10.818;2022-11-20T23:27:25;0.67;;;0.67;;
41984;SDS011;28319;48.116;10.818;2022-11-20T23:32:28;0.50;;;0.50;;
41984;SDS011;28319;48.116;10.818;2022-11-20T23:37:30;0.67;;;0.67;;
41984;SDS011;28319;48.116;10.818;2022-11-20T23:42:33;0.60;;;0.60;;
41984;SDS011;28319;48.116;10.818;2022-11-20T23:47:39;0.40;;;0.40;;
41984;SDS011;28319;48.116;10.818;2022-11-20T23:52:41;0.60;;;0.60;;
41984;SDS011;28319;48.116;10.818;2022-11-20T23:57:44;0.50;;;0.50;;
